Time;durP1;ratioP1;P1;durP2;ratioP2;P2;SDS_P1;SDS_P2;PMS_P1;PMS_P2;Temp;Humidity;BMP_temperature;BMP_pressure;BME280_temperature;BME280_humidity;BME280_pressure;Samples;Min_cycle;Max_cycle;Signal;HPM_P1;HPM_P2
2022/09/10 00:01:16;;;;;;;7.70;3.33;;;15.20;99.90;;;;;;5056068;28;20028;-43
2022/09/10 00:03:42;;;;;;;7.28;3.58;;;15.20;99.90;;;;;;5055999;28;20029;-45
2022/09/10 00:06:09;;;;;;;6.55;3.28;;;15.20;99.90;;;;;;5050700;28;20017;-45
2022/09/10 00:08:35;;;;;;;5.85;3.25;;;15.30;99.90;;;;;;5048983;28;20024;-46
2022/09/10 00:11:09;;;;;;;4.05;2.67;;;15.20;99.90;;;;;;5055846;28;20028;-44
2022/09/10 00:13:37;;;;;;;4.68;3.17;;;15.20;99.90;;;;;;5054204;28;20021;-44
2022/09/10 00:16:05;;;;;;;5.22;3.05;;;15.20;99.90;;;;;;5055703;28;20025;-47
2022/09/10 00:18:32;;;;;;;4.63;3.30;;;15.20;99.90;;;;;;5055812;28;20037;-47
2022/09/10 00:20:59;;;;;;;6.93;2.72;;;15.10;99.90;;;;;;5056166;28;20056;-48
2022/09/10 00:23:27;;;;;;;6.03;3.13;;;15.20;99.90;;;;;;5054717;28;20032;-45
2022/09/10 00:25:54;;;;;;;4.30;2.83;;;15.10;99.90;;;;;;5056084;28;20024;-45
2022/09/10 00:28:21;;;;;;;3.65;2.10;;;15.10;99.90;;;;;;5055958;28;20029;-45
2022/09/10 00:30:50;;;;;;;5.97;2.85;;;15.00;99.90;;;;;;5054827;28;20072;-45
2022/09/10 00:33:17;;;;;;;4.13;2.13;;;15.00;99.90;;;;;;5055490;28;20553;-46
2022/09/10 00:35:44;;;;;;;5.30;2.20;;;15.10;99.90;;;;;;5047889;28;20026;-45
2022/09/10 00:38:11;;;;;;;5.10;2.53;;;15.10;99.90;;;;;;5043719;28;20029;-46
2022/09/10 00:40:38;;;;;;;4.80;2.15;;;15.10;99.90;;;;;;5052869;28;20078;-45
2022/09/10 00:43:11;;;;;;;3.05;1.92;;;15.10;99.90;;;;;;5052506;28;20087;-45
2022/09/10 00:45:37;;;;;;;2.65;1.63;;;15.10;99.90;;;;;;5052788;28;20017;-47
2022/09/10 00:48:14;;;;;;;2.67;1.63;;;15.10;99.90;;;;;;5052811;28;20020;-46
2022/09/10 00:50:42;;;;;;;2.38;1.95;;;15.20;99.90;;;;;;5052577;28;20120;-47
2022/09/10 00:53:11;;;;;;;2.75;1.60;;;15.10;99.90;;;;;;5052305;28;20021;-45
2022/09/10 00:55:39;;;;;;;3.28;1.83;;;15.10;99.90;;;;;;5052547;28;20527;-44
2022/09/10 00:58:07;;;;;;;4.60;1.70;;;15.00;99.90;;;;;;5052367;28;20029;-46
2022/09/10 01:00:33;;;;;;;2.10;1.40;;;15.00;99.90;;;;;;5052693;28;20036;-45
2022/09/10 01:03:00;;;;;;;3.65;2.17;;;14.90;99.90;;;;;;5050866;28;20053;-44
2022/09/10 01:05:26;;;;;;;1.88;1.77;;;14.90;99.90;;;;;;5050011;28;20112;-46
2022/09/10 01:07:56;;;;;;;3.00;2.30;;;14.80;99.90;;;;;;5040114;28;20112;-45
2022/09/10 01:10:27;;;;;;;;;;;14.90;99.90;;;;;;5052337;28;20493;-45
2022/09/10 01:13:00;;;;;;;3.03;1.98;;;14.90;99.90;;;;;;5051727;28;19909;-44
2022/09/10 01:15:40;;;;;;;5.68;1.70;;;14.80;99.90;;;;;;5052065;28;20032;-46
2022/09/10 01:18:37;;;;;;;2.15;1.85;;;14.90;99.90;;;;;;5052035;28;20470;-44
2022/09/10 01:21:24;;;;;;;4.00;1.58;;;14.90;99.90;;;;;;5051746;28;20503;-48
2022/09/10 01:24:13;;;;;;;5.57;2.10;;;15.00;99.90;;;;;;5051842;28;20103;-45
2022/09/10 01:26:48;;;;;;;3.83;1.73;;;15.00;99.90;;;;;;5051976;28;20021;-48
2022/09/10 01:29:43;;;;;;;3.30;2.08;;;15.10;99.90;;;;;;5051742;28;20113;-47
2022/09/10 01:32:14;;;;;;;2.05;1.35;;;15.10;99.90;;;;;;5051626;28;20064;-45
2022/09/10 01:34:53;;;;;;;1.70;1.30;;;15.20;99.90;;;;;;5042684;28;20030;-47
2022/09/10 01:37:26;;;;;;;5.10;1.65;;;15.20;99.90;;;;;;5024995;28;20022;-46
2022/09/10 01:39:52;;;;;;;2.47;1.40;;;15.20;99.90;;;;;;5022505;28;20041;-45
2022/09/10 01:42:18;;;;;;;5.32;2.13;;;15.30;99.90;;;;;;5021743;28;20062;-46
2022/09/10 01:44:46;;;;;;;8.05;2.53;;;15.30;99.90;;;;;;5020159;28;20038;-45
2022/09/10 01:47:40;;;;;;;3.83;1.80;;;15.30;99.90;;;;;;5021992;28;20020;-45
2022/09/10 01:50:32;;;;;;;5.22;1.55;;;15.30;99.90;;;;;;5019088;28;20030;-45
2022/09/10 01:53:13;;;;;;;3.88;2.05;;;15.40;99.90;;;;;;5020670;28;20454;-45
2022/09/10 01:55:58;;;;;;;4.72;1.65;;;15.40;99.90;;;;;;5021238;28;20188;-47
2022/09/10 01:58:37;;;;;;;5.50;1.80;;;15.40;99.90;;;;;;5021475;28;20164;-45
2022/09/10 02:01:10;;;;;;;2.70;1.60;;;15.40;99.90;;;;;;5019896;28;20018;-45
2022/09/10 02:03:38;;;;;;;6.13;1.67;;;15.50;99.90;;;;;;5021164;28;20153;-46
2022/09/10 02:06:08;;;;;;;2.08;1.60;;;15.50;99.90;;;;;;5022988;28;20501;-47
2022/09/10 02:08:37;;;;;;;4.88;1.92;;;15.60;99.90;;;;;;5027607;28;20044;-45
2022/09/10 02:11:05;;;;;;;3.30;1.65;;;15.60;99.90;;;;;;5019457;28;20021;-45
2022/09/10 02:13:32;;;;;;;2.15;1.42;;;15.60;99.90;;;;;;5021468;28;20546;-45
2022/09/10 02:16:01;;;;;;;1.90;1.23;;;15.60;99.90;;;;;;5020537;28;20025;-46
2022/09/10 02:18:27;;;;;;;4.40;1.90;;;15.70;99.90;;;;;;5021725;28;20018;-45
2022/09/10 02:20:56;;;;;;;2.40;1.15;;;15.70;99.90;;;;;;5018885;28;20030;-45
2022/09/10 02:23:30;;;;;;;4.35;1.80;;;15.70;99.90;;;;;;5018215;28;20412;-46
2022/09/10 02:25:56;;;;;;;2.88;1.48;;;15.70;99.90;;;;;;5020848;28;20456;-47
2022/09/10 02:28:21;;;;;;;4.30;1.70;;;15.70;99.90;;;;;;5019625;28;20053;-45
2022/09/10 02:30:47;;;;;;;3.08;1.70;;;15.70;99.90;;;;;;5021643;28;20037;-45
2022/09/10 02:33:15;;;;;;;4.82;1.75;;;15.70;99.90;;;;;;5022323;28;20037;-45
2022/09/10 02:35:41;;;;;;;3.10;1.20;;;15.70;99.90;;;;;;5024963;28;20068;-46
2022/09/10 02:38:07;;;;;;;5.45;1.90;;;15.70;99.90;;;;;;5030604;28;20044;-46
2022/09/10 02:40:32;;;;;;;4.95;1.75;;;15.80;99.90;;;;;;5029202;28;20487;-45
2022/09/10 02:42:57;;;;;;;4.38;1.60;;;15.80;99.90;;;;;;5030101;28;20104;-46
2022/09/10 02:45:23;;;;;;;4.22;1.65;;;15.70;99.90;;;;;;5030553;28;20021;-46
2022/09/10 02:47:49;;;;;;;4.07;1.70;;;15.70;99.90;;;;;;5029562;28;20021;-46
2022/09/10 02:50:15;;;;;;;3.08;1.65;;;15.70;99.90;;;;;;5030544;28;20028;-45
2022/09/10 02:52:41;;;;;;;7.43;1.60;;;15.70;99.90;;;;;;5029477;28;20395;-46
2022/09/10 02:55:07;;;;;;;4.45;1.73;;;15.70;99.90;;;;;;5030270;28;20028;-44
2022/09/10 02:57:33;;;;;;;3.17;1.70;;;15.60;99.90;;;;;;5030509;28;20056;-46
2022/09/10 02:59:59;;;;;;;4.90;1.67;;;15.60;99.90;;;;;;5030334;28;20104;-46
2022/09/10 03:02:24;;;;;;;6.47;1.75;;;15.50;99.90;;;;;;5029538;28;20033;-45
2022/09/10 03:04:50;;;;;;;4.07;1.50;;;15.40;99.90;;;;;;5038434;28;20076;-45
2022/09/10 03:07:18;;;;;;;3.95;1.70;;;15.40;99.90;;;;;;5048823;28;20039;-45
2022/09/10 03:09:47;;;;;;;5.88;2.10;;;15.40;99.90;;;;;;5050176;28;20428;-47
2022/09/10 03:12:14;;;;;;;2.92;1.77;;;15.40;99.90;;;;;;5050098;28;20032;-45
2022/09/10 03:14:40;;;;;;;2.97;1.90;;;15.40;99.90;;;;;;5049773;28;20029;-46
2022/09/10 03:17:06;;;;;;;5.57;1.75;;;15.40;99.90;;;;;;5050267;28;20032;-46
2022/09/10 03:19:31;;;;;;;3.60;1.80;;;15.30;99.90;;;;;;5049998;28;20117;-45
2022/09/10 03:21:56;;;;;;;6.53;1.70;;;15.30;99.90;;;;;;5048674;28;20641;-46
2022/09/10 03:24:24;;;;;;;2.25;1.70;;;15.30;99.90;;;;;;5049590;28;20077;-46
2022/09/10 03:26:49;;;;;;;3.55;1.73;;;15.30;99.90;;;;;;5050027;28;20025;-45
2022/09/10 03:29:15;;;;;;;6.05;1.67;;;15.30;99.90;;;;;;5049744;28;20032;-45
2022/09/10 03:31:41;;;;;;;2.90;1.58;;;15.30;99.90;;;;;;5049729;28;20021;-45
2022/09/10 03:34:09;;;;;;;2.42;1.65;;;15.40;99.90;;;;;;5043949;28;20013;-46
2022/09/10 03:36:34;;;;;;;7.00;1.85;;;15.30;99.90;;;;;;5038891;28;20626;-46
2022/09/10 03:39:00;;;;;;;3.80;1.73;;;15.30;99.90;;;;;;5040861;28;20028;-46
2022/09/10 03:41:27;;;;;;;4.53;2.35;;;15.40;99.90;;;;;;5047955;28;20383;-46
2022/09/10 03:43:53;;;;;;;5.38;2.08;;;15.40;99.90;;;;;;5049027;28;20028;-47
2022/09/10 03:46:20;;;;;;;5.22;2.17;;;15.40;99.90;;;;;;5049802;28;20094;-47
2022/09/10 03:48:45;;;;;;;5.88;2.00;;;15.40;99.90;;;;;;5049828;28;20033;-46
2022/09/10 03:51:11;;;;;;;8.10;1.70;;;15.40;99.90;;;;;;5049587;28;20025;-48
2022/09/10 03:53:39;;;;;;;2.33;1.60;;;15.40;99.90;;;;;;5049406;28;20654;-45
2022/09/10 03:56:05;;;;;;;8.07;1.95;;;15.40;99.90;;;;;;5049803;28;20025;-49
2022/09/10 03:58:31;;;;;;;4.72;1.60;;;15.40;99.90;;;;;;5049755;28;20023;-46
2022/09/10 04:00:56;;;;;;;3.08;1.20;;;15.40;99.90;;;;;;5048687;28;20033;-46
2022/09/10 04:03:22;;;;;;;5.38;1.92;;;15.50;99.90;;;;;;5047977;28;20136;-45
2022/09/10 04:05:47;;;;;;;2.67;1.42;;;15.40;99.90;;;;;;5047968;28;20026;-46
2022/09/10 04:08:14;;;;;;;4.03;1.30;;;15.40;99.90;;;;;;5038324;28;20071;-45
2022/09/10 04:10:41;;;;;;;3.83;1.75;;;15.50;99.90;;;;;;5048686;28;20059;-45
2022/09/10 04:13:06;;;;;;;2.78;1.70;;;15.40;99.90;;;;;;5046979;28;20025;-45
2022/09/10 04:15:32;;;;;;;7.78;1.98;;;15.40;99.90;;;;;;5052026;28;20029;-44
2022/09/10 04:17:58;;;;;;;3.17;1.30;;;15.40;99.90;;;;;;5046507;28;20027;-45
2022/09/10 04:20:24;;;;;;;5.75;2.03;;;15.40;99.90;;;;;;5044408;28;20190;-45
2022/09/10 04:22:50;;;;;;;3.97;1.60;;;15.30;99.90;;;;;;5052175;28;20112;-45
2022/09/10 04:25:17;;;;;;;6.25;1.67;;;15.30;99.90;;;;;;5052628;28;20036;-45
2022/09/10 04:27:43;;;;;;;4.38;2.10;;;15.30;99.90;;;;;;5052572;28;20046;-45
2022/09/10 04:30:09;;;;;;;2.35;1.38;;;15.30;99.90;;;;;;5052670;28;20036;-44
2022/09/10 04:32:36;;;;;;;4.50;1.95;;;15.30;99.90;;;;;;5052098;28;20762;-45
2022/09/10 04:35:01;;;;;;;4.10;1.85;;;15.30;99.90;;;;;;5052289;28;20033;-45
2022/09/10 04:37:27;;;;;;;2.88;1.63;;;15.30;99.90;;;;;;5045877;28;20151;-44
2022/09/10 04:39:53;;;;;;;4.05;2.35;;;15.30;99.90;;;;;;5048022;28;20429;-45
2022/09/10 04:42:19;;;;;;;6.32;1.85;;;15.30;99.90;;;;;;5052064;28;20037;-47
2022/09/10 04:44:45;;;;;;;3.50;1.58;;;15.30;99.90;;;;;;5051800;28;20036;-45
2022/09/10 04:47:11;;;;;;;3.55;1.15;;;15.30;99.90;;;;;;5051131;28;20028;-46
2022/09/10 04:49:36;;;;;;;4.88;1.58;;;15.30;99.90;;;;;;5052071;28;20017;-45
2022/09/10 04:52:02;;;;;;;6.22;1.85;;;15.30;99.90;;;;;;5045392;28;20032;-45
2022/09/10 04:54:28;;;;;;;3.10;1.50;;;15.30;99.90;;;;;;5043388;28;20024;-46
2022/09/10 04:56:53;;;;;;;7.20;2.00;;;15.20;99.90;;;;;;5052308;28;20129;-46
2022/09/10 04:59:20;;;;;;;2.70;1.52;;;15.20;99.90;;;;;;5048625;28;20108;-45
2022/09/10 05:01:49;;;;;;;3.65;1.73;;;15.20;99.90;;;;;;5041965;28;20028;-45
2022/09/10 05:04:15;;;;;;;1.83;1.50;;;15.20;99.90;;;;;;5051848;28;20140;-45
2022/09/10 05:06:40;;;;;;;5.38;1.70;;;15.20;99.90;;;;;;5039001;28;20104;-45
2022/09/10 05:09:06;;;;;;;2.67;1.45;;;15.20;99.90;;;;;;5049768;28;20024;-45
2022/09/10 05:11:32;;;;;;;2.88;1.50;;;15.20;99.90;;;;;;5041681;28;20017;-46
2022/09/10 05:13:57;;;;;;;2.20;1.63;;;15.20;99.90;;;;;;5042258;28;20138;-45
2022/09/10 05:16:23;;;;;;;3.72;1.92;;;15.30;99.90;;;;;;5048388;28;20048;-45
2022/09/10 05:18:48;;;;;;;3.38;1.90;;;15.30;99.90;;;;;;5025758;28;20029;-44
2022/09/10 05:21:14;;;;;;;2.90;1.77;;;15.30;99.90;;;;;;5043413;28;20048;-45
2022/09/10 05:23:40;;;;;;;3.15;1.80;;;15.30;99.90;;;;;;5046840;28;20477;-45
2022/09/10 05:26:06;;;;;;;3.55;1.90;;;15.30;99.90;;;;;;5040797;28;20014;-46
2022/09/10 05:28:31;;;;;;;3.28;1.67;;;15.40;99.90;;;;;;5051855;28;20370;-45
2022/09/10 05:30:57;;;;;;;6.78;1.98;;;15.40;99.90;;;;;;5040664;28;20029;-45
2022/09/10 05:33:22;;;;;;;5.75;1.92;;;15.40;99.90;;;;;;5050984;28;20036;-45
2022/09/10 05:35:51;;;;;;;3.58;1.48;;;15.50;99.90;;;;;;5031832;28;20029;-45
2022/09/10 05:38:17;;;;;;;2.85;1.75;;;15.40;99.90;;;;;;5027370;28;20033;-45
2022/09/10 05:40:42;;;;;;;3.03;1.55;;;15.50;99.90;;;;;;5014744;28;20026;-45
2022/09/10 05:43:09;;;;;;;4.05;1.80;;;15.50;99.90;;;;;;5030701;28;20155;-45
2022/09/10 05:45:34;;;;;;;4.38;2.08;;;15.50;99.90;;;;;;5044939;28;20056;-45
2022/09/10 05:48:00;;;;;;;3.33;1.80;;;15.50;99.90;;;;;;5042459;28;20064;-45
2022/09/10 05:50:25;;;;;;;3.20;1.88;;;15.60;99.90;;;;;;5043436;28;20028;-45
2022/09/10 05:52:51;;;;;;;3.25;1.85;;;15.70;99.90;;;;;;5051272;28;20029;-44
2022/09/10 05:55:17;;;;;;;4.05;2.00;;;15.60;99.90;;;;;;5047586;28;20029;-46
2022/09/10 05:57:42;;;;;;;2.72;1.50;;;15.60;99.90;;;;;;5045975;28;20028;-45
2022/09/10 06:00:09;;;;;;;6.40;1.85;;;15.60;99.90;;;;;;5051152;28;20386;-48
2022/09/10 06:02:35;;;;;;;6.20;1.90;;;15.70;99.90;;;;;;5051023;28;20106;-45
2022/09/10 06:05:00;;;;;;;4.82;2.17;;;15.60;99.90;;;;;;5040137;28;20026;-45
2022/09/10 06:07:30;;;;;;;3.53;1.70;;;15.70;99.90;;;;;;5043027;28;20013;-45
2022/09/10 06:09:59;;;;;;;5.78;1.70;;;15.70;99.90;;;;;;5050994;28;20100;-44
2022/09/10 06:12:25;;;;;;;2.88;1.80;;;15.70;99.90;;;;;;5040913;28;20013;-45
2022/09/10 06:14:51;;;;;;;4.20;1.85;;;15.70;99.90;;;;;;5035784;28;20033;-44
2022/09/10 06:17:17;;;;;;;5.53;2.25;;;15.80;99.90;;;;;;5031100;28;20051;-46
2022/09/10 06:19:44;;;;;;;4.80;1.73;;;15.80;99.90;;;;;;5028597;28;20099;-48
2022/09/10 06:22:10;;;;;;;3.85;2.08;;;15.90;99.90;;;;;;5020427;28;20042;-47
2022/09/10 06:24:37;;;;;;;6.88;1.90;;;16.00;99.90;;;;;;5034635;28;20048;-45
2022/09/10 06:27:04;;;;;;;4.22;1.70;;;16.00;99.90;;;;;;5047643;28;20017;-46
2022/09/10 06:29:29;;;;;;;6.35;2.00;;;16.10;99.90;;;;;;5041694;28;20204;-47
2022/09/10 06:31:55;;;;;;;3.78;2.08;;;16.20;99.90;;;;;;5045052;28;20021;-48
2022/09/10 06:34:20;;;;;;;8.10;2.25;;;16.30;99.90;;;;;;5042233;28;20021;-46
2022/09/10 06:36:47;;;;;;;2.65;1.60;;;16.30;99.90;;;;;;5041812;28;20025;-46
2022/09/10 06:39:13;;;;;;;5.93;1.85;;;16.40;99.90;;;;;;5046104;28;20029;-47
2022/09/10 06:41:39;;;;;;;3.63;1.90;;;16.50;99.90;;;;;;5040955;28;20013;-48
2022/09/10 06:44:04;;;;;;;3.75;2.33;;;16.50;99.90;;;;;;5048945;28;20104;-46
2022/09/10 06:46:30;;;;;;;2.58;1.83;;;16.40;99.90;;;;;;5048092;28;20033;-47
2022/09/10 06:48:59;;;;;;;4.53;2.05;;;16.50;99.90;;;;;;5048984;28;20584;-48
2022/09/10 06:51:25;;;;;;;2.20;1.65;;;16.60;99.90;;;;;;5030933;28;20025;-47
2022/09/10 06:53:50;;;;;;;2.63;1.40;;;16.70;99.90;;;;;;5018302;28;20017;-46
2022/09/10 06:56:16;;;;;;;2.33;1.52;;;16.80;99.90;;;;;;5019939;28;20515;-48
2022/09/10 06:58:42;;;;;;;2.78;1.40;;;17.00;99.90;;;;;;5017806;28;20029;-46
2022/09/10 07:01:13;;;;;;;3.00;1.80;;;17.10;99.90;;;;;;5024431;28;20026;-47
2022/09/10 07:03:40;;;;;;;7.97;2.35;;;17.30;99.90;;;;;;5017160;28;20038;-47
2022/09/10 07:06:09;;;;;;;5.63;1.95;;;17.30;99.90;;;;;;5014596;28;20091;-47
2022/09/10 07:08:35;;;;;;;2.85;1.80;;;17.30;99.90;;;;;;5008646;28;20105;-49
2022/09/10 07:11:04;;;;;;;4.18;2.40;;;17.40;99.90;;;;;;5009793;28;20172;-49
2022/09/10 07:13:30;;;;;;;3.40;1.77;;;17.40;99.90;;;;;;5009435;28;20107;-46
2022/09/10 07:15:56;;;;;;;3.67;1.60;;;17.50;99.90;;;;;;5009199;28;20037;-46
2022/09/10 07:18:23;;;;;;;4.80;1.63;;;17.60;99.90;;;;;;5032593;28;20013;-46
2022/09/10 07:20:49;;;;;;;5.22;1.95;;;17.60;99.90;;;;;;5038256;28;20043;-47
2022/09/10 07:23:17;;;;;;;4.97;1.90;;;17.70;99.90;;;;;;5027638;28;20186;-47
2022/09/10 07:25:43;;;;;;;6.03;1.83;;;17.90;99.90;;;;;;5029054;28;20045;-47
2022/09/10 07:28:12;;;;;;;8.80;1.83;;;18.20;99.90;;;;;;5027746;28;20022;-47
2022/09/10 07:30:39;;;;;;;5.60;2.10;;;18.30;99.90;;;;;;5029295;28;20036;-47
2022/09/10 07:33:05;;;;;;;3.33;1.77;;;18.40;99.90;;;;;;5028298;28;20053;-47
2022/09/10 07:35:34;;;;;;;5.07;2.40;;;18.50;99.90;;;;;;5029086;28;20041;-46
2022/09/10 07:37:59;;;;;;;6.20;2.45;;;18.60;99.90;;;;;;5024717;28;20053;-47
2022/09/10 07:40:26;;;;;;;5.50;2.17;;;18.70;99.90;;;;;;5022145;28;20106;-47
2022/09/10 07:42:54;;;;;;;2.97;1.83;;;18.80;99.90;;;;;;5031612;28;20018;-46
2022/09/10 07:45:20;;;;;;;4.28;2.00;;;18.80;99.90;;;;;;5048628;28;20768;-46
2022/09/10 07:47:47;;;;;;;3.10;1.63;;;18.70;99.90;;;;;;5050107;28;20029;-46
2022/09/10 07:50:13;;;;;;;4.40;1.83;;;18.60;99.90;;;;;;5052876;28;20071;-47
2022/09/10 07:52:39;;;;;;;6.70;2.03;;;18.50;99.90;;;;;;5052446;28;20017;-48
2022/09/10 07:55:05;;;;;;;2.22;1.48;;;18.50;99.90;;;;;;5052347;28;20032;-46
2022/09/10 07:57:33;;;;;;;5.43;1.75;;;18.50;99.90;;;;;;5052514;28;20025;-48
2022/09/10 07:59:59;;;;;;;9.85;5.78;;;18.50;99.90;;;;;;5052639;28;20564;-49
2022/09/10 08:02:25;;;;;;;6.63;4.93;;;18.50;99.90;;;;;;5050253;28;20025;-46
2022/09/10 08:04:51;;;;;;;7.05;4.13;;;18.40;99.90;;;;;;5052601;28;20055;-46
2022/09/10 08:07:17;;;;;;;3.45;1.83;;;18.50;99.90;;;;;;5052808;28;20542;-47
2022/09/10 08:09:42;;;;;;;5.57;1.70;;;18.50;99.90;;;;;;5043394;28;20110;-49
2022/09/10 08:12:08;;;;;;;6.45;1.98;;;18.50;99.90;;;;;;5041946;28;20021;-46
2022/09/10 08:14:36;;;;;;;4.68;1.60;;;18.50;99.90;;;;;;5051742;28;20025;-49
2022/09/10 08:17:02;;;;;;;4.00;1.48;;;18.50;99.90;;;;;;5052294;28;20021;-49
2022/09/10 08:19:28;;;;;;;2.88;1.40;;;18.30;99.90;;;;;;5052315;28;20617;-49
2022/09/10 08:21:55;;;;;;;3.30;1.52;;;18.40;99.90;;;;;;5052484;28;20081;-46
2022/09/10 08:24:21;;;;;;;3.60;1.90;;;18.30;99.90;;;;;;5051892;28;20021;-47
2022/09/10 08:26:46;;;;;;;3.08;1.60;;;18.50;99.90;;;;;;5050584;28;20021;-47
2022/09/10 08:29:12;;;;;;;6.78;1.60;;;18.60;99.90;;;;;;5052046;28;20471;-47
2022/09/10 08:31:38;;;;;;;3.13;1.42;;;18.60;99.90;;;;;;5052098;28;20073;-48
2022/09/10 08:34:04;;;;;;;4.28;1.35;;;18.60;99.90;;;;;;5038286;28;20070;-47
2022/09/10 08:36:30;;;;;;;7.65;1.67;;;18.80;99.90;;;;;;5021282;28;20084;-48
2022/09/10 08:38:55;;;;;;;4.40;1.95;;;18.80;99.90;;;;;;5019365;28;20057;-47
2022/09/10 08:41:37;;;;;;;7.07;1.80;;;18.90;99.90;;;;;;5037958;28;20056;-47
2022/09/10 08:44:08;;;;;;;3.83;1.75;;;18.70;99.90;;;;;;5048603;28;20033;-47
2022/09/10 08:46:50;;;;;;;8.88;2.30;;;18.80;99.90;;;;;;5052125;28;20110;-47
2022/09/10 08:49:40;;;;;;;6.45;1.98;;;19.00;99.90;;;;;;5045387;28;20479;-48
2022/09/10 08:52:26;;;;;;;;;;;19.00;99.90;;;;;;5013440;28;20018;-47
2022/09/10 08:55:18;;;;;;;29.20;17.25;;;19.20;99.90;;;;;;5012754;28;20429;-47
2022/09/10 08:57:53;;;;;;;11.20;2.83;;;19.70;99.90;;;;;;5037163;28;20052;-48
2022/09/10 09:00:22;;;;;;;3.78;1.88;;;20.50;99.90;;;;;;5050950;28;20453;-50
2022/09/10 09:02:55;;;;;;;7.57;2.25;;;21.30;99.90;;;;;;5032468;28;20028;-49
2022/09/10 09:05:22;;;;;;;3.63;1.75;;;21.90;99.90;;;;;;5021613;28;20038;-47
2022/09/10 09:07:49;;;;;;;3.78;1.45;;;22.30;99.90;;;;;;5021865;28;20021;-47
2022/09/10 09:10:24;;;;;;;5.20;2.13;;;22.30;99.90;;;;;;5023068;28;20367;-48
2022/09/10 09:13:25;;;;;;;4.82;1.40;;;22.40;99.90;;;;;;5022441;28;20046;-48
2022/09/10 09:16:18;;;;;;;4.03;1.67;;;22.70;99.90;;;;;;5022928;28;20668;-47
2022/09/10 09:19:13;;;;;;;7.40;1.92;;;22.90;98.80;;;;;;5021680;28;20060;-48
2022/09/10 09:21:50;;;;;;;3.10;1.73;;;22.70;98.60;;;;;;5021467;28;20018;-48
2022/09/10 09:24:39;;;;;;;4.32;2.20;;;23.10;98.60;;;;;;5020513;28;20057;-46
2022/09/10 09:27:09;;;;;;;5.43;1.90;;;23.00;97.90;;;;;;5026724;28;20025;-45
2022/09/10 09:30:02;;;;;;;8.20;2.10;;;22.80;97.00;;;;;;5025543;28;20036;-46
2022/09/10 09:32:33;;;;;;;3.25;1.58;;;22.70;97.20;;;;;;5021644;28;20149;-45
2022/09/10 09:35:15;;;;;;;3.17;1.77;;;22.60;97.80;;;;;;5020914;28;20053;-49
2022/09/10 09:37:44;;;;;;;5.10;1.58;;;23.10;97.10;;;;;;5021284;28;20057;-45
2022/09/10 09:40:11;;;;;;;2.53;1.30;;;23.60;97.50;;;;;;5021686;28;20025;-49
2022/09/10 09:43:00;;;;;;;4.10;1.20;;;24.10;95.50;;;;;;5026180;28;20030;-49
2022/09/10 09:45:38;;;;;;;7.20;1.70;;;24.80;94.90;;;;;;5021691;28;20021;-48
2022/09/10 09:48:10;;;;;;;5.72;1.70;;;25.30;93.40;;;;;;5021254;28;20041;-47
2022/09/10 09:50:38;;;;;;;4.85;1.92;;;25.90;93.80;;;;;;5019212;28;20018;-50
2022/09/10 09:53:04;;;;;;;5.47;1.60;;;26.10;92.60;;;;;;5020998;28;20018;-49
2022/09/10 09:55:42;;;;;;;4.10;1.60;;;26.40;90.70;;;;;;5021682;28;20036;-47
2022/09/10 09:58:20;;;;;;;4.25;1.60;;;26.60;88.80;;;;;;5021720;28;20534;-47
2022/09/10 10:01:05;;;;;;;3.05;1.67;;;26.80;90.10;;;;;;5021288;28;20033;-48
2022/09/10 10:03:47;;;;;;;4.65;1.80;;;26.70;87.70;;;;;;5021647;28;20084;-48
2022/09/10 10:06:14;;;;;;;4.82;1.50;;;27.10;85.00;;;;;;5022043;28;20640;-48
2022/09/10 10:08:43;;;;;;;2.38;1.70;;;26.70;87.30;;;;;;5019046;28;20014;-50
2022/09/10 10:11:12;;;;;;;4.10;1.27;;;27.80;87.40;;;;;;5026445;28;20030;-47
2022/09/10 10:13:41;;;;;;;3.50;1.50;;;28.40;84.30;;;;;;5023902;28;20041;-46
2022/09/10 10:16:15;;;;;;;3.00;1.30;;;28.60;79.70;;;;;;5022590;28;20026;-50
2022/09/10 10:18:41;;;;;;;1.08;0.82;;;30.10;76.70;;;;;;5027096;28;20025;-48
2022/09/10 10:21:28;;;;;;;4.43;1.10;;;31.40;76.00;;;;;;5022533;28;20021;-50
2022/09/10 10:23:53;;;;;;;4.13;3.35;;;32.70;69.70;;;;;;5019972;28;20033;-48
2022/09/10 10:26:22;;;;;;;3.15;1.33;;;33.10;65.20;;;;;;5018148;28;20595;-49
2022/09/10 10:28:50;;;;;;;3.78;1.40;;;32.20;65.40;;;;;;5019276;28;20060;-49
2022/09/10 10:31:17;;;;;;;3.63;1.08;;;32.40;63.50;;;;;;5020664;28;20033;-50
2022/09/10 10:34:22;;;;;;;3.83;1.48;;;31.70;64.10;;;;;;5018779;28;20137;-47
2022/09/10 10:37:12;;;;;;;4.18;1.20;;;31.80;66.90;;;;;;5009664;28;20030;-46
2022/09/10 10:39:59;;;;;;;3.80;1.20;;;32.80;64.50;;;;;;5021558;28;20628;-49
2022/09/10 10:42:37;;;;;;;3.17;1.17;;;32.70;62.90;;;;;;5029470;28;20387;-49
2022/09/10 10:45:21;;;;;;;2.05;1.27;;;31.90;62.80;;;;;;5030609;28;20036;-48
2022/09/10 10:48:00;;;;;;;3.47;1.30;;;30.50;67.30;;;;;;5030304;28;20113;-49
2022/09/10 10:50:51;;;;;;;3.88;1.20;;;29.10;66.20;;;;;;5021854;28;20014;-48
2022/09/10 10:53:47;;;;;;;3.80;1.27;;;27.50;71.50;;;;;;5010236;28;20084;-48
2022/09/10 10:56:36;;;;;;;3.30;1.50;;;26.50;74.40;;;;;;5009113;28;20541;-49
2022/09/10 10:59:38;;;;;;;3.92;1.70;;;25.90;76.70;;;;;;5013381;28;20410;-47
2022/09/10 11:02:15;;;;;;;2.60;1.60;;;25.10;78.50;;;;;;5019090;28;20026;-46
2022/09/10 11:04:47;;;;;;;3.45;1.58;;;25.90;77.60;;;;;;5017291;28;20037;-47
2022/09/10 11:07:38;;;;;;;1.92;1.00;;;27.00;75.50;;;;;;5018249;28;20100;-49
2022/09/10 11:10:24;;;;;;;3.33;0.90;;;28.40;69.20;;;;;;5020800;28;20561;-49
2022/09/10 11:12:59;;;;;;;2.55;1.10;;;29.70;64.40;;;;;;5031674;28;20013;-49
2022/09/10 11:15:40;;;;;;;2.55;1.08;;;30.90;62.40;;;;;;5019264;28;20018;-48
2022/09/10 11:18:22;;;;;;;5.05;0.90;;;31.70;62.70;;;;;;5019401;28;20136;-50
2022/09/10 11:21:14;;;;;;;3.83;1.35;;;32.60;62.70;;;;;;5018439;28;20053;-48
2022/09/10 11:24:10;;;;;;;2.13;1.10;;;32.80;61.80;;;;;;5017027;28;20018;-49
2022/09/10 11:26:46;;;;;;;5.53;1.33;;;31.00;62.30;;;;;;5018407;28;20046;-49
2022/09/10 11:29:41;;;;;;;2.63;1.17;;;29.40;66.10;;;;;;5009651;28;20026;-48
2022/09/10 11:32:25;;;;;;;3.38;1.10;;;28.20;67.70;;;;;;5009554;28;20060;-47
2022/09/10 11:35:02;;;;;;;3.28;1.30;;;26.90;70.20;;;;;;5012188;28;20041;-46
2022/09/10 11:37:45;;;;;;;1.35;0.82;;;26.10;75.10;;;;;;5009393;28;20029;-47
2022/09/10 11:40:29;;;;;;;2.35;1.10;;;25.30;74.90;;;;;;5014575;28;20026;-49
2022/09/10 11:43:01;;;;;;;4.03;1.17;;;24.70;76.80;;;;;;5040878;28;20017;-48
2022/09/10 11:45:31;;;;;;;5.18;1.35;;;24.30;78.80;;;;;;5049915;28;20021;-50
2022/09/10 11:48:26;;;;;;;3.33;1.00;;;24.10;79.70;;;;;;5048576;28;20036;-47
2022/09/10 11:50:55;;;;;;;2.97;0.90;;;23.90;77.80;;;;;;5049860;28;20040;-47
2022/09/10 11:53:23;;;;;;;1.52;1.00;;;23.70;78.60;;;;;;5049522;28;20025;-46
2022/09/10 11:56:07;;;;;;;3.58;1.40;;;23.50;79.30;;;;;;5049480;28;20021;-47
2022/09/10 11:58:51;;;;;;;2.10;0.82;;;24.10;80.20;;;;;;5049831;28;20071;-48
2022/09/10 12:01:32;;;;;;;1.75;0.98;;;25.70;79.00;;;;;;5049677;28;20025;-52
2022/09/10 12:04:16;;;;;;;;;;;26.90;74.20;;;;;;5049630;28;20044;-49
2022/09/10 12:07:01;;;;;;;3.17;1.00;;;27.70;67.40;;;;;;5049519;28;19909;-47
2022/09/10 12:10:00;;;;;;;4.95;1.25;;;29.00;68.00;;;;;;5049600;28;20021;-47
2022/09/10 12:12:38;;;;;;;1.20;0.70;;;29.40;65.90;;;;;;5029182;28;20014;-46
2022/09/10 12:15:17;;;;;;;2.42;0.85;;;29.60;69.20;;;;;;5029210;28;20022;-48
2022/09/10 12:17:47;;;;;;;2.35;0.90;;;29.80;70.80;;;;;;5029687;28;20033;-48
2022/09/10 12:20:28;;;;;;;1.70;0.80;;;29.20;67.80;;;;;;5029562;28;20083;-47
2022/09/10 12:22:55;;;;;;;7.05;5.00;;;29.20;70.90;;;;;;5029336;28;20499;-49
2022/09/10 12:25:23;;;;;;;2.85;2.38;;;29.00;67.40;;;;;;5029269;28;20033;-48
2022/09/10 12:27:51;;;;;;;1.58;0.93;;;28.50;67.90;;;;;;5029686;28;20036;-50
2022/09/10 12:30:28;;;;;;;3.40;1.40;;;28.20;68.70;;;;;;5029217;28;20108;-49
2022/09/10 12:32:59;;;;;;;1.15;0.95;;;27.80;69.90;;;;;;5024628;28;20026;-49
2022/09/10 12:35:34;;;;;;;0.88;0.63;;;27.80;71.80;;;;;;5020779;28;20030;-48
2022/09/10 12:38:40;;;;;;;2.10;1.05;;;27.80;71.50;;;;;;5021791;28;20398;-49
2022/09/10 12:41:13;;;;;;;2.42;0.93;;;27.90;71.90;;;;;;5031880;28;20036;-49
2022/09/10 12:43:39;;;;;;;1.33;0.82;;;27.30;70.80;;;;;;5041964;28;20067;-49
2022/09/10 12:46:07;;;;;;;4.85;1.23;;;26.60;71.30;;;;;;5036443;28;20033;-48
2022/09/10 12:48:35;;;;;;;2.63;1.10;;;26.00;73.50;;;;;;5028242;28;20022;-47
2022/09/10 12:51:20;;;;;;;1.75;0.80;;;26.00;73.50;;;;;;5023982;28;20037;-48
2022/09/10 12:54:09;;;;;;;3.03;1.48;;;25.80;71.70;;;;;;5034316;28;20478;-48
2022/09/10 12:56:56;;;;;;;1.25;0.90;;;25.80;71.40;;;;;;5033662;28;20484;-48
2022/09/10 12:59:58;;;;;;;2.33;1.00;;;25.70;73.50;;;;;;5026627;28;20030;-47
2022/09/10 13:02:33;;;;;;;1.20;0.90;;;25.90;74.00;;;;;;5024672;28;20030;-47
2022/09/10 13:05:24;;;;;;;1.45;0.90;;;26.00;73.40;;;;;;5027675;28;20031;-47
2022/09/10 13:08:00;;;;;;;3.53;1.00;;;25.70;71.00;;;;;;5019068;28;20106;-46
2022/09/10 13:10:27;;;;;;;1.77;1.20;;;25.00;73.20;;;;;;5026885;28;20018;-46